createdAt,value
2019-02-24T00:04:03.802Z,7.50
2019-02-24T00:06:32.183Z,7.40
2019-02-24T00:09:00.797Z,7.70
2019-02-24T00:11:29.200Z,8.13
2019-02-24T00:13:57.924Z,7.60
2019-02-24T00:16:26.310Z,9.38
2019-02-24T00:18:55.034Z,8.63
2019-02-24T00:21:23.682Z,9.20
2019-02-24T00:23:52.058Z,8.25
2019-02-24T00:26:20.742Z,7.50
2019-02-24T00:28:49.430Z,7.72
2019-02-24T00:31:18.168Z,9.35
2019-02-24T00:33:46.513Z,8.10
2019-02-24T00:36:14.890Z,7.50
2019-02-24T00:39:23.199Z,7.47
2019-02-24T00:41:51.973Z,6.80
2019-02-24T00:44:20.661Z,7.35
2019-02-24T00:46:49.364Z,7.20
2019-02-24T00:49:17.729Z,6.50
2019-02-24T00:51:46.116Z,6.78
2019-02-24T00:54:14.791Z,6.70
2019-02-24T00:56:43.475Z,5.75
2019-02-24T00:59:11.848Z,5.62
2019-02-24T01:01:40.328Z,6.30
2019-02-24T01:04:08.712Z,6.30
2019-02-24T01:06:37.085Z,6.15
2019-02-24T01:12:12.339Z,5.85
2019-02-24T01:14:30.818Z,6.33
2019-02-24T01:16:59.488Z,6.75
2019-02-24T01:19:28.123Z,7.00
2019-02-24T01:21:56.543Z,6.55
2019-02-24T01:24:24.883Z,6.45
2019-02-24T01:26:53.614Z,6.70
2019-02-24T01:29:22.227Z,5.95
2019-02-24T01:31:50.886Z,6.10
2019-02-24T01:34:19.276Z,6.25
2019-02-24T01:36:47.949Z,6.90
2019-02-24T01:39:16.634Z,6.12
2019-02-24T01:41:45.029Z,6.37
2019-02-24T01:44:13.696Z,6.45
2019-02-24T01:46:42.076Z,6.10
2019-02-24T01:49:10.708Z,5.40
2019-02-24T01:51:39.350Z,6.15
2019-02-24T01:54:08.037Z,5.85
2019-02-24T01:56:36.718Z,6.70
2019-02-24T01:59:05.405Z,6.80
2019-02-24T02:04:48.143Z,6.33
2019-02-24T02:07:16.513Z,6.30
2019-02-24T02:09:45.225Z,6.33
2019-02-24T02:12:13.889Z,5.95
2019-02-24T02:14:42.270Z,7.10
2019-02-24T02:17:10.957Z,6.20
2019-02-24T02:19:39.640Z,6.30
2019-02-24T02:22:08.325Z,5.87
2019-02-24T02:24:36.762Z,6.00
2019-02-24T02:27:05.498Z,6.10
2019-02-24T02:29:33.876Z,6.50
2019-02-24T02:32:02.258Z,5.70
2019-02-24T02:34:30.894Z,6.17
2019-02-24T02:36:59.521Z,5.67
2019-02-24T02:39:28.208Z,6.22
2019-02-24T02:41:56.602Z,6.45
2019-02-24T02:44:24.977Z,6.95
2019-02-24T02:47:13.006Z,6.40
2019-02-24T02:49:41.710Z,6.45
2019-02-24T02:52:10.330Z,6.80
2019-02-24T02:54:38.960Z,6.40
2019-02-24T02:57:07.356Z,7.53
2019-02-24T02:59:36.038Z,6.85
2019-02-24T03:02:04.430Z,7.00
2019-02-24T03:04:33.095Z,7.78
2019-02-24T03:09:50.994Z,6.47
2019-02-24T03:12:19.372Z,6.72
2019-02-24T03:14:48.005Z,5.90
2019-02-24T03:17:16.699Z,6.22
2019-02-24T03:19:45.091Z,6.53
2019-02-24T03:22:25.410Z,6.08
2019-02-24T03:24:53.798Z,6.58
2019-02-24T03:27:22.492Z,6.40
2019-02-24T03:29:50.884Z,6.17
2019-02-24T03:32:19.317Z,6.87
2019-02-24T03:34:47.672Z,6.45
2019-02-24T03:37:16.051Z,6.60
2019-02-24T03:39:44.453Z,6.47
2019-02-24T03:42:13.176Z,6.12
2019-02-24T03:44:41.554Z,6.75
2019-02-24T03:47:09.997Z,7.08
2019-02-24T03:49:38.380Z,6.85
2019-02-24T03:52:06.769Z,7.60
2019-02-24T03:54:35.479Z,7.50
2019-02-24T03:57:04.010Z,7.00
2019-02-24T03:59:32.394Z,6.95
2019-02-24T04:02:20.128Z,7.00
2019-02-24T04:04:48.506Z,7.60
2019-02-24T04:07:16.950Z,7.40
2019-02-24T04:09:45.333Z,8.10
2019-02-24T04:12:13.997Z,7.15
2019-02-24T04:14:42.377Z,7.55
2019-02-24T04:17:10.759Z,7.65
2019-02-24T04:19:39.146Z,7.15
2019-02-24T04:22:07.830Z,7.95
2019-02-24T04:24:36.218Z,8.43
2019-02-24T04:27:04.589Z,7.95
2019-02-24T04:29:33.262Z,7.45
2019-02-24T04:34:51.020Z,8.85
2019-02-24T04:37:19.401Z,7.90
2019-02-24T04:39:47.791Z,7.62
2019-02-24T04:42:16.435Z,8.80
2019-02-24T04:44:45.073Z,8.50
2019-02-24T04:47:13.471Z,8.65
2019-02-24T04:49:41.873Z,9.08
2019-02-24T04:52:10.277Z,7.53
2019-02-24T04:54:38.675Z,7.53
2019-02-24T04:57:07.078Z,7.70
2019-02-24T04:59:35.487Z,7.80
2019-02-24T05:02:03.874Z,7.62
2019-02-24T05:04:32.289Z,7.22
2019-02-24T05:07:01.016Z,6.87
2019-02-24T05:09:29.656Z,7.92
2019-02-24T05:11:58.297Z,6.42
2019-02-24T05:14:26.940Z,7.20
2019-02-24T05:16:55.579Z,8.00
2019-02-24T05:19:23.974Z,6.37
2019-02-24T05:21:52.376Z,7.35
2019-02-24T05:24:20.769Z,6.50
2019-02-24T05:26:49.171Z,7.22
2019-02-24T05:29:17.557Z,7.20
2019-02-24T05:31:46.199Z,6.28
2019-02-24T05:34:14.589Z,6.80
2019-02-24T05:36:42.993Z,7.40
2019-02-24T05:39:11.371Z,6.33
2019-02-24T05:41:39.829Z,5.92
2019-02-24T05:44:08.249Z,7.75
2019-02-24T05:46:36.882Z,7.78
2019-02-24T05:49:05.543Z,6.72
2019-02-24T05:51:34.177Z,6.97
2019-02-24T05:54:02.570Z,7.42
2019-02-24T05:56:31.224Z,7.37
2019-02-24T05:58:59.881Z,7.90
2019-02-24T06:01:28.517Z,6.10
2019-02-24T06:03:56.918Z,6.28
2019-02-24T06:06:25.550Z,6.87
2019-02-24T06:08:54.202Z,7.72
2019-02-24T06:11:22.847Z,7.40
2019-02-24T06:13:52.213Z,8.10
2019-02-24T06:16:21.441Z,6.50
2019-02-24T06:18:49.911Z,7.20
2019-02-24T06:21:18.569Z,6.75
2019-02-24T06:23:46.965Z,6.83
2019-02-24T06:26:15.373Z,7.30
2019-02-24T06:28:44.020Z,7.53
2019-02-24T06:31:12.414Z,7.25
2019-02-24T06:33:40.821Z,6.65
2019-02-24T06:36:09.666Z,6.50
2019-02-24T06:38:38.303Z,7.17
2019-02-24T06:41:06.683Z,7.05
2019-02-24T06:43:35.086Z,7.65
2019-02-24T06:46:03.714Z,7.05
2019-02-24T06:48:32.345Z,7.33
2019-02-24T06:53:36.405Z,6.10
2019-02-24T06:56:04.860Z,6.67
2019-02-24T06:58:33.512Z,6.55
2019-02-24T07:01:02.210Z,7.25
2019-02-24T07:03:30.607Z,6.75
2019-02-24T07:05:59.241Z,7.15
2019-02-24T07:08:27.645Z,7.17
2019-02-24T07:10:56.027Z,6.78
2019-02-24T07:13:24.414Z,6.03
2019-02-24T07:15:53.056Z,6.30
2019-02-24T07:18:21.446Z,7.12
2019-02-24T07:20:50.093Z,7.30
2019-02-24T07:23:18.553Z,7.05
2019-02-24T07:25:46.987Z,6.55
2019-02-24T07:28:15.370Z,6.95
2019-02-24T07:30:44.018Z,6.97
2019-02-24T07:33:12.532Z,6.95
2019-02-24T07:35:40.878Z,7.05
2019-02-24T07:38:09.284Z,7.10
2019-02-24T07:40:37.673Z,10.50
2019-02-24T07:43:06.323Z,7.35
2019-02-24T07:45:34.790Z,8.08
2019-02-24T07:48:03.444Z,6.97
2019-02-24T07:50:31.827Z,6.80
2019-02-24T07:53:00.234Z,8.45
2019-02-24T07:55:28.875Z,7.08
2019-02-24T07:57:57.525Z,6.92
2019-02-24T08:00:32.037Z,7.47
2019-02-24T08:02:56.269Z,6.67
2019-02-24T08:05:24.677Z,6.90
2019-02-24T08:07:53.062Z,7.72
2019-02-24T08:10:21.474Z,7.25
2019-02-24T08:12:49.864Z,7.35
2019-02-24T08:15:18.275Z,7.70
2019-02-24T08:17:46.678Z,8.30
2019-02-24T08:20:15.084Z,7.30
2019-02-24T08:22:43.732Z,8.60
2019-02-24T08:25:12.188Z,7.62
2019-02-24T08:27:40.831Z,7.25
2019-02-24T08:30:28.919Z,8.30
2019-02-24T08:32:57.584Z,7.78
2019-02-24T08:35:26.243Z,8.35
2019-02-24T08:37:54.884Z,8.75
2019-02-24T08:40:23.589Z,7.72
2019-02-24T08:42:51.984Z,8.40
2019-02-24T08:45:20.392Z,8.13
2019-02-24T08:48:08.122Z,7.58
2019-02-24T08:50:36.766Z,8.25
2019-02-24T08:53:05.711Z,7.95
2019-02-24T08:55:34.125Z,8.55
2019-02-24T08:58:02.517Z,8.20
2019-02-24T09:00:31.230Z,8.25
2019-02-24T09:02:59.878Z,7.60
2019-02-24T09:05:28.267Z,8.55
2019-02-24T09:07:56.924Z,7.78
2019-02-24T09:10:25.315Z,8.18
2019-02-24T09:12:53.734Z,7.67
2019-02-24T09:15:22.125Z,8.48
2019-02-24T09:17:50.752Z,8.70
2019-02-24T09:20:19.418Z,8.15
2019-02-24T09:22:48.043Z,8.50
2019-02-24T09:25:16.459Z,8.50
2019-02-24T09:27:44.853Z,8.80
2019-02-24T09:30:34.057Z,8.10
2019-02-24T09:33:02.699Z,8.95
2019-02-24T09:35:31.114Z,8.80
2019-02-24T09:37:59.953Z,8.55
2019-02-24T09:40:28.361Z,7.90
2019-02-24T09:42:57.026Z,7.53
2019-02-24T09:45:25.419Z,8.63
2019-02-24T09:47:54.108Z,7.80
2019-02-24T09:50:22.508Z,8.10
2019-02-24T09:52:51.160Z,8.35
2019-02-24T09:55:19.561Z,7.97
2019-02-24T09:57:47.960Z,7.57
2019-02-24T10:00:37.142Z,8.50
2019-02-24T10:03:05.552Z,8.50
2019-02-24T10:05:33.956Z,9.30
2019-02-24T10:08:02.332Z,8.30
2019-02-24T10:10:30.741Z,7.10
2019-02-24T10:12:59.129Z,7.07
2019-02-24T10:15:27.543Z,7.80
2019-02-24T10:17:56.183Z,7.63
2019-02-24T10:20:24.912Z,7.30
2019-02-24T10:22:53.570Z,7.43
2019-02-24T10:25:21.978Z,6.77
2019-02-24T10:27:50.352Z,6.83
2019-02-24T10:30:18.747Z,8.27
2019-02-24T10:32:47.144Z,7.40
2019-02-24T10:35:15.784Z,7.27
2019-02-24T10:37:44.185Z,7.00
2019-02-24T10:40:52.731Z,7.80
2019-02-24T10:43:21.142Z,7.33
2019-02-24T10:45:49.766Z,6.60
2019-02-24T10:48:18.416Z,7.17
2019-02-24T10:50:47.055Z,7.80
2019-02-24T10:53:15.441Z,9.10
2019-02-24T10:55:43.837Z,8.63
2019-02-24T10:58:12.482Z,8.20
2019-02-24T11:00:40.961Z,8.60
2019-02-24T11:03:09.359Z,8.20
2019-02-24T11:05:37.770Z,7.90
2019-02-24T11:08:06.218Z,8.10
2019-02-24T11:10:34.681Z,8.30
2019-02-24T11:13:03.323Z,8.60
2019-02-24T11:15:31.977Z,9.07
2019-02-24T11:18:01.570Z,8.37
2019-02-24T11:20:30.522Z,7.80
2019-02-24T11:22:58.935Z,7.30
2019-02-24T11:25:27.323Z,7.43
2019-02-24T11:27:55.766Z,7.43
2019-02-24T11:30:24.173Z,7.97
2019-02-24T11:32:52.826Z,7.23
2019-02-24T11:35:21.469Z,7.70
2019-02-24T11:37:49.862Z,7.33
2019-02-24T11:40:39.598Z,8.00
2019-02-24T11:43:08.020Z,8.10
2019-02-24T11:45:36.414Z,7.73
2019-02-24T11:48:05.119Z,8.23
2019-02-24T11:50:33.778Z,8.20
2019-02-24T11:53:02.246Z,8.50
2019-02-24T11:55:30.658Z,7.97
2019-02-24T11:57:59.088Z,7.37
2019-02-24T12:00:27.490Z,8.07
2019-02-24T12:02:56.156Z,8.23
2019-02-24T12:05:24.543Z,7.80
2019-02-24T12:07:52.948Z,7.40
2019-02-24T12:10:21.349Z,7.83
2019-02-24T12:12:49.759Z,7.27
2019-02-24T12:15:18.230Z,8.10
2019-02-24T12:17:46.630Z,7.37
2019-02-24T12:20:54.924Z,7.20
2019-02-24T12:23:23.321Z,7.70
2019-02-24T12:25:51.739Z,7.90
2019-02-24T12:28:39.737Z,8.23
2019-02-24T12:31:08.129Z,7.97
2019-02-24T12:33:36.835Z,7.07
2019-02-24T12:36:05.488Z,7.13
2019-02-24T12:38:33.870Z,7.03
2019-02-24T12:41:02.523Z,6.90
2019-02-24T12:43:31.156Z,6.67
2019-02-24T12:45:59.639Z,7.33
2019-02-24T12:48:28.272Z,7.70
2019-02-24T12:50:56.690Z,7.40
2019-02-24T12:53:25.413Z,7.10
2019-02-24T12:55:54.118Z,6.70
2019-02-24T12:58:22.535Z,7.10
2019-02-24T13:00:50.921Z,7.30
2019-02-24T13:03:23.907Z,7.20
2019-02-24T13:05:49.536Z,7.63
2019-02-24T13:08:17.937Z,7.90
2019-02-24T13:10:46.338Z,7.33
2019-02-24T13:13:15.018Z,7.67
2019-02-24T13:15:43.464Z,6.73
2019-02-24T13:18:11.865Z,7.40
2019-02-24T13:20:40.327Z,6.70
2019-02-24T13:23:09.037Z,6.20
2019-02-24T13:25:37.748Z,6.70
2019-02-24T13:28:06.395Z,6.50
2019-02-24T13:30:36.135Z,7.43
2019-02-24T13:33:05.112Z,6.90
2019-02-24T13:35:33.650Z,6.87
2019-02-24T13:38:02.035Z,6.70
2019-02-24T13:40:30.457Z,6.27
2019-02-24T13:42:58.842Z,6.70
2019-02-24T13:45:27.396Z,7.40
2019-02-24T13:47:55.930Z,6.87
2019-02-24T13:50:24.572Z,8.03
2019-02-24T13:52:53.230Z,10.57
2019-02-24T13:55:21.869Z,7.53
2019-02-24T13:57:50.515Z,7.23
2019-02-24T14:00:58.809Z,6.60
2019-02-24T14:03:27.238Z,6.77
2019-02-24T14:05:55.632Z,6.70
2019-02-24T14:08:24.051Z,7.20
2019-02-24T14:10:52.753Z,7.10
2019-02-24T14:13:21.533Z,6.60
2019-02-24T14:15:49.945Z,6.43
2019-02-24T14:18:18.606Z,6.70
2019-02-24T14:20:47.059Z,5.97
2019-02-24T14:23:15.435Z,6.40
2019-02-24T14:25:43.836Z,7.00
2019-02-24T14:28:12.239Z,6.17
2019-02-24T14:30:40.648Z,6.30
2019-02-24T14:33:09.288Z,6.97
2019-02-24T14:35:37.684Z,6.73
2019-02-24T14:38:06.193Z,7.40
2019-02-24T14:40:34.862Z,6.70
2019-02-24T14:43:03.228Z,6.87
2019-02-24T14:45:31.659Z,6.40
2019-02-24T14:48:00.312Z,6.50
2019-02-24T14:50:28.947Z,6.87
2019-02-24T14:52:57.594Z,6.97
2019-02-24T14:55:25.993Z,7.57
2019-02-24T14:57:54.622Z,7.13
2019-02-24T15:01:02.935Z,7.03
2019-02-24T15:03:31.589Z,7.10
2019-02-24T15:05:59.996Z,8.40
2019-02-24T15:08:28.383Z,7.30
2019-02-24T15:10:57.063Z,8.23
2019-02-24T15:13:32.486Z,7.30
2019-02-24T15:16:00.889Z,6.53
2019-02-24T15:18:29.344Z,7.13
2019-02-24T15:20:57.752Z,7.60
2019-02-24T15:23:26.407Z,8.20
2019-02-24T15:25:55.073Z,8.77
2019-02-24T15:28:23.921Z,8.30
2019-02-24T15:30:52.354Z,9.40
2019-02-24T15:33:21.010Z,7.90
2019-02-24T15:35:49.404Z,7.70
2019-02-24T15:38:19.121Z,7.60
2019-02-24T15:40:48.189Z,8.40
2019-02-24T15:43:16.864Z,7.60
2019-02-24T15:45:45.256Z,7.70
2019-02-24T15:48:13.892Z,8.53
2019-02-24T15:50:42.315Z,7.63
2019-02-24T15:53:10.700Z,7.90
2019-02-24T15:55:39.122Z,7.43
2019-02-24T15:58:07.501Z,8.13
2019-02-24T16:00:35.984Z,8.27
2019-02-24T16:03:04.637Z,8.40
2019-02-24T16:05:33.041Z,8.00
2019-02-24T16:08:01.449Z,7.60
2019-02-24T16:10:29.855Z,7.10
2019-02-24T16:12:58.523Z,8.00
2019-02-24T16:16:06.901Z,7.60
2019-02-24T16:18:35.587Z,7.90
2019-02-24T16:21:04.227Z,8.10
2019-02-24T16:23:32.625Z,8.03
2019-02-24T16:26:01.030Z,8.13
2019-02-24T16:28:29.706Z,8.40
2019-02-24T16:30:58.103Z,7.93
2019-02-24T16:33:26.505Z,8.57
2019-02-24T16:35:54.902Z,8.40
2019-02-24T16:38:23.420Z,9.17
2019-02-24T16:40:51.807Z,9.23
2019-02-24T16:43:21.020Z,8.70
2019-02-24T16:45:49.649Z,9.00
2019-02-24T16:48:18.057Z,8.90
2019-02-24T16:50:46.784Z,9.50
2019-02-24T16:53:15.174Z,9.00
2019-02-24T16:55:43.861Z,9.90
2019-02-24T16:58:12.262Z,8.30
2019-02-24T17:00:40.904Z,8.90
2019-02-24T17:03:09.563Z,8.97
2019-02-24T17:05:38.286Z,9.50
2019-02-24T17:08:06.697Z,8.63
2019-02-24T17:10:35.091Z,10.13
2019-02-24T17:13:03.726Z,9.63
2019-02-24T17:15:32.380Z,9.63
2019-02-24T17:18:00.763Z,9.57
2019-02-24T17:21:09.076Z,9.87
2019-02-24T17:23:37.724Z,10.43
2019-02-24T17:26:06.381Z,11.13
2019-02-24T17:28:35.041Z,10.03
2019-02-24T17:31:03.708Z,11.00
2019-02-24T17:33:32.794Z,9.20
2019-02-24T17:36:02.228Z,7.30
2019-02-24T17:38:50.366Z,7.10
2019-02-24T17:41:18.758Z,8.40
2019-02-24T17:43:47.407Z,6.93
2019-02-24T17:46:16.098Z,7.43
2019-02-24T17:48:44.484Z,7.40
2019-02-24T17:51:20.821Z,7.40
2019-02-24T17:53:42.997Z,7.40
2019-02-24T17:56:11.667Z,7.60
2019-02-24T17:58:40.283Z,8.00
2019-02-24T18:01:08.663Z,7.57
2019-02-24T18:03:39.770Z,7.10
2019-02-24T18:06:07.424Z,6.30
2019-02-24T18:08:36.071Z,6.60
2019-02-24T18:11:04.528Z,6.60
2019-02-24T18:13:32.909Z,6.13
2019-02-24T18:16:01.556Z,6.67
2019-02-24T18:21:24.696Z,6.50
2019-02-24T18:23:53.085Z,7.10
2019-02-24T18:26:21.736Z,7.53
2019-02-24T18:28:50.160Z,7.50
2019-02-24T18:31:18.567Z,9.10
2019-02-24T18:33:48.578Z,9.10
2019-02-24T18:36:17.087Z,8.90
2019-02-24T18:38:45.490Z,8.30
2019-02-24T18:41:14.127Z,8.47
2019-02-24T18:43:42.555Z,7.90
2019-02-24T18:46:11.196Z,7.70
2019-02-24T18:48:39.845Z,7.50
2019-02-24T18:51:08.240Z,7.40
2019-02-24T18:53:36.625Z,7.80
2019-02-24T18:56:05.031Z,7.67
2019-02-24T18:58:33.666Z,7.33
2019-02-24T19:01:02.296Z,7.20
2019-02-24T19:03:30.688Z,6.80
2019-02-24T19:05:59.083Z,7.37
2019-02-24T19:08:27.490Z,7.67
2019-02-24T19:10:56.182Z,7.80
2019-02-24T19:13:24.633Z,7.57
2019-02-24T19:15:53.283Z,7.27
2019-02-24T19:18:21.678Z,7.87
2019-02-24T19:20:50.326Z,8.13
2019-02-24T19:23:18.711Z,8.13
2019-02-24T19:25:47.377Z,6.87
2019-02-24T19:28:16.251Z,8.00
2019-02-24T19:30:44.598Z,7.43
2019-02-24T19:33:13.065Z,8.20
2019-02-24T19:35:41.522Z,7.53
2019-02-24T19:38:09.937Z,8.13
2019-02-24T19:40:38.321Z,8.10
2019-02-24T19:43:06.963Z,8.23
2019-02-24T19:45:35.361Z,7.83
2019-02-24T19:48:03.752Z,8.60
2019-02-24T19:50:32.463Z,7.63
2019-02-24T19:53:00.922Z,8.37
2019-02-24T19:55:29.589Z,7.53
2019-02-24T19:57:57.979Z,8.97
2019-02-24T20:00:26.706Z,7.93
2019-02-24T20:02:55.176Z,8.67
2019-02-24T20:05:23.810Z,8.30
2019-02-24T20:07:52.225Z,8.33
2019-02-24T20:11:00.516Z,8.73
2019-02-24T20:13:28.922Z,9.43
2019-02-24T20:15:57.554Z,8.87
2019-02-24T20:18:25.959Z,9.10
2019-02-24T20:20:54.601Z,9.50
2019-02-24T20:23:22.986Z,8.73
2019-02-24T20:25:51.396Z,9.45
2019-02-24T20:28:20.036Z,8.57
2019-02-24T20:30:48.442Z,8.77
2019-02-24T20:33:16.831Z,8.70
2019-02-24T20:35:45.230Z,9.63
2019-02-24T20:38:13.860Z,10.23
2019-02-24T20:40:42.276Z,11.08
2019-02-24T20:43:10.938Z,9.03
2019-02-24T20:45:39.383Z,8.67
2019-02-24T20:48:07.780Z,8.30
2019-02-24T20:50:36.359Z,8.70
2019-02-24T20:53:25.795Z,9.08
2019-02-24T20:55:54.471Z,10.28
2019-02-24T20:58:22.887Z,9.65
2019-02-24T21:01:12.094Z,11.90
2019-02-24T21:03:40.493Z,9.07
2019-02-24T21:06:08.907Z,10.32
2019-02-24T21:08:37.555Z,9.23
2019-02-24T21:11:06.228Z,9.57
2019-02-24T21:13:34.646Z,9.48
2019-02-24T21:16:03.042Z,9.83
2019-02-24T21:18:31.448Z,10.23
2019-02-24T21:21:00.097Z,10.93
2019-02-24T21:23:28.490Z,10.43
2019-02-24T21:25:57.151Z,10.48
2019-02-24T21:28:25.562Z,10.23
2019-02-24T21:30:54.205Z,10.80
2019-02-24T21:33:22.613Z,10.40
2019-02-24T21:35:51.262Z,11.05
2019-02-24T21:38:19.918Z,11.53
2019-02-24T21:40:48.565Z,10.23
2019-02-24T21:43:16.968Z,11.95
2019-02-24T21:45:45.384Z,10.85
2019-02-24T21:48:13.785Z,9.83
2019-02-24T21:50:42.425Z,10.45
2019-02-24T21:53:11.084Z,9.38
2019-02-24T21:55:39.727Z,9.18
2019-02-24T21:58:08.379Z,9.80
2019-02-24T22:00:36.845Z,9.10
2019-02-24T22:03:05.328Z,9.40
2019-02-24T22:05:33.980Z,9.90
2019-02-24T22:08:02.626Z,9.00
2019-02-24T22:10:31.028Z,9.78
2019-02-24T22:12:59.684Z,10.85
2019-02-24T22:15:28.333Z,10.78
2019-02-24T22:17:56.988Z,11.00
2019-02-24T22:20:25.625Z,10.72
2019-02-24T22:22:54.039Z,11.25
2019-02-24T22:25:22.676Z,11.50
2019-02-24T22:27:51.086Z,10.60
2019-02-24T22:30:59.400Z,10.78
2019-02-24T22:33:28.069Z,10.30
2019-02-24T22:35:56.480Z,10.15
2019-02-24T22:38:24.905Z,9.55
2019-02-24T22:40:54.571Z,9.88
2019-02-24T22:43:23.679Z,9.63
2019-02-24T22:45:52.146Z,10.30
2019-02-24T22:48:20.877Z,9.90
2019-02-24T22:50:49.289Z,9.25
2019-02-24T22:53:17.938Z,9.58
2019-02-24T22:55:46.579Z,9.95
2019-02-24T22:58:15.241Z,10.08
2019-02-24T23:01:23.559Z,10.15
2019-02-24T23:03:51.967Z,9.63
2019-02-24T23:06:20.385Z,9.63
2019-02-24T23:08:49.025Z,10.10
2019-02-24T23:11:37.098Z,9.00
2019-02-24T23:14:45.466Z,10.50
2019-02-24T23:17:13.876Z,9.53
2019-02-24T23:19:42.263Z,9.65
2019-02-24T23:22:10.901Z,10.68
2019-02-24T23:24:39.310Z,9.38
2019-02-24T23:27:07.958Z,10.20
2019-02-24T23:29:36.373Z,10.55
2019-02-24T23:32:04.843Z,10.95
2019-02-24T23:34:33.243Z,12.45
2019-02-24T23:37:01.910Z,11.10
2019-02-24T23:39:30.300Z,10.43
2019-02-24T23:41:58.710Z,11.68
2019-02-24T23:44:27.359Z,10.95
2019-02-24T23:46:55.757Z,11.30
2019-02-24T23:49:24.426Z,10.90
2019-02-24T23:51:52.822Z,11.75
2019-02-24T23:54:21.480Z,10.32
2019-02-24T23:56:49.890Z,11.33
2019-02-24T23:59:18.578Z,9.63
